createdAt,value
2022-10-02T00:00:02.733Z,0.00
2022-10-02T00:01:02.990Z,0.00
2022-10-02T00:02:03.228Z,0.00
2022-10-02T00:03:03.016Z,0.00
2022-10-02T00:04:02.697Z,0.00
2022-10-02T00:05:02.688Z,0.00
2022-10-02T00:06:03.062Z,0.00
2022-10-02T00:07:03.599Z,0.00
2022-10-02T00:08:03.345Z,0.00
2022-10-02T00:09:03.410Z,0.00
2022-10-02T00:10:03.207Z,0.00
2022-10-02T00:11:03.362Z,0.00
2022-10-02T00:12:03.412Z,0.00
2022-10-02T00:13:03.756Z,0.00
2022-10-02T00:14:03.755Z,0.00
2022-10-02T00:15:03.707Z,0.00
2022-10-02T00:16:03.694Z,0.00
2022-10-02T00:17:02.988Z,0.00
2022-10-02T00:18:02.956Z,0.00
2022-10-02T00:19:03.161Z,0.00
2022-10-02T00:20:02.678Z,0.00
2022-10-02T00:21:02.700Z,0.00
2022-10-02T00:22:02.843Z,0.00
2022-10-02T00:23:03.074Z,0.00
2022-10-02T00:24:02.934Z,0.00
2022-10-02T00:25:03.053Z,0.00
2022-10-02T00:26:03.194Z,0.00
2022-10-02T00:27:02.910Z,0.00
2022-10-02T00:28:03.201Z,0.00
2022-10-02T00:29:03.070Z,0.00
2022-10-02T00:30:03.032Z,0.00
2022-10-02T00:31:03.020Z,0.00
2022-10-02T00:32:02.977Z,0.00
2022-10-02T00:33:03.481Z,0.00
2022-10-02T00:34:03.547Z,0.00
2022-10-02T00:35:03.225Z,0.00
2022-10-02T00:36:02.928Z,0.00
2022-10-02T00:37:03.703Z,0.00
2022-10-02T00:38:03.637Z,0.00
2022-10-02T00:39:03.331Z,0.00
2022-10-02T00:40:03.234Z,0.00
2022-10-02T00:41:03.271Z,0.00
2022-10-02T00:42:02.824Z,0.00
2022-10-02T00:43:02.925Z,0.00
2022-10-02T00:44:03.039Z,0.00
2022-10-02T00:45:03.380Z,0.00
2022-10-02T00:46:02.907Z,0.00
2022-10-02T00:47:02.562Z,0.00
2022-10-02T00:48:02.521Z,0.00
2022-10-02T00:49:02.644Z,0.00
2022-10-02T00:50:02.861Z,0.00
2022-10-02T00:51:02.656Z,0.00
2022-10-02T00:52:03.679Z,0.00
2022-10-02T00:53:03.693Z,0.00
2022-10-02T00:54:03.173Z,0.00
2022-10-02T00:55:03.588Z,0.00
2022-10-02T00:56:03.452Z,0.00
2022-10-02T00:57:03.368Z,0.00
2022-10-02T00:58:03.412Z,0.00
2022-10-02T00:59:03.254Z,0.00
2022-10-02T01:00:03.767Z,0.00
2022-10-02T01:01:03.926Z,0.00
2022-10-02T01:02:02.726Z,0.00
2022-10-02T01:03:02.513Z,0.00
2022-10-02T01:04:03.160Z,0.00
2022-10-02T01:05:02.945Z,0.00
2022-10-02T01:06:02.806Z,0.00
2022-10-02T01:07:02.643Z,0.00
2022-10-02T01:08:03.087Z,0.00
2022-10-02T01:09:03.114Z,0.00
2022-10-02T01:10:02.822Z,0.00
2022-10-02T01:11:02.784Z,0.00
2022-10-02T01:12:02.930Z,0.00
2022-10-02T01:13:02.596Z,0.00
2022-10-02T01:14:02.766Z,0.00
2022-10-02T01:15:02.504Z,0.00
2022-10-02T01:16:02.553Z,0.00
2022-10-02T01:17:02.249Z,0.00
2022-10-02T01:18:02.427Z,0.00
2022-10-02T01:19:02.280Z,0.00
2022-10-02T01:20:02.234Z,0.00
2022-10-02T01:21:02.219Z,0.00
2022-10-02T01:22:02.238Z,0.00
2022-10-02T01:23:01.606Z,0.00
2022-10-02T01:24:01.699Z,0.00
2022-10-02T01:25:02.230Z,0.00
2022-10-02T01:26:01.812Z,0.00
2022-10-02T01:27:02.555Z,0.00
2022-10-02T01:28:02.800Z,0.00
2022-10-02T01:29:02.085Z,0.00
2022-10-02T01:30:02.576Z,0.00
2022-10-02T01:31:02.372Z,0.00
2022-10-02T01:32:02.145Z,0.00
2022-10-02T01:33:01.658Z,0.00
2022-10-02T01:34:02.105Z,0.00
2022-10-02T01:35:01.937Z,0.00
2022-10-02T01:36:01.905Z,0.00
2022-10-02T01:37:02.231Z,0.00
2022-10-02T01:38:02.525Z,0.00
2022-10-02T01:39:02.127Z,0.00
2022-10-02T01:40:02.456Z,0.00
2022-10-02T01:41:02.577Z,0.00
2022-10-02T01:42:02.993Z,0.00
2022-10-02T01:43:02.512Z,0.00
2022-10-02T01:44:02.596Z,0.00
2022-10-02T01:45:03.148Z,0.00
2022-10-02T01:46:02.589Z,0.00
2022-10-02T01:47:02.294Z,0.00
2022-10-02T01:48:02.471Z,0.00
2022-10-02T01:49:02.217Z,0.00
2022-10-02T01:50:02.099Z,0.00
2022-10-02T01:51:02.129Z,0.00
2022-10-02T01:52:02.476Z,0.00
2022-10-02T01:53:02.857Z,0.00
2022-10-02T01:54:02.828Z,0.00
2022-10-02T01:55:02.722Z,0.00
2022-10-02T01:56:02.656Z,0.00
2022-10-02T01:57:01.979Z,0.00
2022-10-02T01:58:02.236Z,0.00
2022-10-02T01:59:01.988Z,0.00
2022-10-02T02:00:02.525Z,0.00
2022-10-02T02:01:02.265Z,0.00
2022-10-02T02:02:02.703Z,0.00
2022-10-02T02:03:02.612Z,0.00
2022-10-02T02:04:02.607Z,0.00
2022-10-02T02:05:02.594Z,0.00
2022-10-02T02:06:02.706Z,0.00
2022-10-02T02:07:03.079Z,0.00
2022-10-02T02:08:02.997Z,0.00
2022-10-02T02:09:03.352Z,0.00
2022-10-02T02:10:03.262Z,0.00
2022-10-02T02:11:03.152Z,0.00
2022-10-02T02:12:03.686Z,0.00
2022-10-02T02:13:03.271Z,0.00
2022-10-02T02:14:03.645Z,0.00
2022-10-02T02:15:03.267Z,0.00
2022-10-02T02:16:03.692Z,0.00
2022-10-02T02:17:03.267Z,0.00
2022-10-02T02:18:03.267Z,0.00
2022-10-02T02:19:03.352Z,0.00
2022-10-02T02:20:03.044Z,0.00
2022-10-02T02:21:03.635Z,0.00
2022-10-02T02:22:02.852Z,0.00
2022-10-02T02:23:03.033Z,0.00
2022-10-02T02:24:03.152Z,0.00
2022-10-02T02:25:02.794Z,0.00
2022-10-02T02:26:02.858Z,0.00
2022-10-02T02:27:03.115Z,0.00
2022-10-02T02:28:03.383Z,0.00
2022-10-02T02:29:03.182Z,0.00
2022-10-02T02:30:03.124Z,0.00
2022-10-02T02:31:03.058Z,0.00
2022-10-02T02:32:03.518Z,0.00
2022-10-02T02:33:03.122Z,0.00
2022-10-02T02:34:03.691Z,0.00
2022-10-02T02:35:03.478Z,0.00
2022-10-02T02:36:03.317Z,0.00
2022-10-02T02:37:03.476Z,0.00
2022-10-02T02:38:03.692Z,0.00
2022-10-02T02:39:03.647Z,0.00
2022-10-02T02:40:03.721Z,0.00
2022-10-02T02:41:03.335Z,0.00
2022-10-02T02:42:03.246Z,0.00
2022-10-02T02:43:03.457Z,0.00
2022-10-02T02:44:03.294Z,0.00
2022-10-02T02:45:03.135Z,0.00
2022-10-02T02:46:03.459Z,0.00
2022-10-02T02:47:03.850Z,0.00
2022-10-02T02:48:03.367Z,0.00
2022-10-02T02:49:03.253Z,0.00
2022-10-02T02:50:03.612Z,0.00
2022-10-02T02:51:03.906Z,0.00
2022-10-02T02:52:02.487Z,0.00
2022-10-02T02:53:02.535Z,0.00
2022-10-02T02:54:02.953Z,0.00
2022-10-02T02:55:02.909Z,0.00
2022-10-02T02:56:02.843Z,0.00
2022-10-02T02:57:03.049Z,0.00
2022-10-02T02:58:03.406Z,0.00
2022-10-02T02:59:03.371Z,0.00
2022-10-02T03:00:03.307Z,0.00
2022-10-02T03:01:03.098Z,0.00
2022-10-02T03:02:03.532Z,0.00
2022-10-02T03:03:03.210Z,0.00
2022-10-02T03:04:03.533Z,0.00
2022-10-02T03:05:03.304Z,0.00
2022-10-02T03:06:03.397Z,0.00
2022-10-02T03:07:02.864Z,0.00
2022-10-02T03:08:02.566Z,0.00
2022-10-02T03:09:02.519Z,0.00
2022-10-02T03:10:02.822Z,0.00
2022-10-02T03:11:02.496Z,0.00
2022-10-02T03:12:02.930Z,0.00
2022-10-02T03:13:03.238Z,0.00
2022-10-02T03:14:03.321Z,0.00
2022-10-02T03:15:03.244Z,0.00
2022-10-02T03:16:03.686Z,0.00
2022-10-02T03:17:02.587Z,0.00
2022-10-02T03:18:03.092Z,0.00
2022-10-02T03:19:02.866Z,0.00
2022-10-02T03:20:03.061Z,0.00
2022-10-02T03:21:03.055Z,0.00
2022-10-02T03:22:02.839Z,0.00
2022-10-02T03:23:03.078Z,0.00
2022-10-02T03:24:03.062Z,0.00
2022-10-02T03:25:02.831Z,0.00
2022-10-02T03:26:03.198Z,0.00
2022-10-02T03:27:03.236Z,0.00
2022-10-02T03:28:03.234Z,0.00
2022-10-02T03:29:03.060Z,0.00
2022-10-02T03:30:03.216Z,0.00
2022-10-02T03:31:02.965Z,0.00
2022-10-02T03:32:02.540Z,0.00
2022-10-02T03:33:03.038Z,0.00
2022-10-02T03:34:03.104Z,0.00
2022-10-02T03:35:02.874Z,0.00
2022-10-02T03:36:02.868Z,0.00
2022-10-02T03:37:02.735Z,0.00
2022-10-02T03:38:03.105Z,0.00
2022-10-02T03:40:03.169Z,0.00
2022-10-02T03:41:02.855Z,0.00
2022-10-02T03:42:03.115Z,0.00
2022-10-02T03:43:02.970Z,0.00
2022-10-02T03:44:03.455Z,0.00
2022-10-02T03:45:03.118Z,0.00
2022-10-02T03:46:03.135Z,0.00
2022-10-02T03:47:02.887Z,0.00
2022-10-02T03:48:02.936Z,0.00
2022-10-02T03:49:02.981Z,0.00
2022-10-02T03:50:02.789Z,0.00
2022-10-02T03:51:02.955Z,0.00
2022-10-02T03:52:03.185Z,0.00
2022-10-02T03:53:02.980Z,0.00
2022-10-02T03:54:02.971Z,0.00
2022-10-02T03:55:03.649Z,0.00
2022-10-02T03:56:03.053Z,0.00
2022-10-02T03:57:02.718Z,0.00
2022-10-02T03:58:03.010Z,0.00
2022-10-02T03:59:03.058Z,0.00
2022-10-02T04:00:02.807Z,0.00
2022-10-02T04:01:03.000Z,0.00
2022-10-02T04:02:02.639Z,0.00
2022-10-02T04:03:02.746Z,0.00
2022-10-02T04:04:02.380Z,0.00
2022-10-02T04:05:02.821Z,0.00
2022-10-02T04:06:02.469Z,0.00
2022-10-02T04:07:02.110Z,0.00
2022-10-02T04:08:01.760Z,0.00
2022-10-02T04:09:02.167Z,0.00
2022-10-02T04:10:02.096Z,0.00
2022-10-02T04:11:02.038Z,0.00
2022-10-02T04:12:02.506Z,0.00
2022-10-02T04:13:02.644Z,0.00
2022-10-02T04:14:02.681Z,0.00
2022-10-02T04:15:02.633Z,0.00
2022-10-02T04:16:03.021Z,0.00
2022-10-02T04:17:02.890Z,0.00
2022-10-02T04:18:02.922Z,0.00
2022-10-02T04:19:02.944Z,0.00
2022-10-02T04:20:02.914Z,0.00
2022-10-02T04:21:02.532Z,0.00
2022-10-02T04:22:01.958Z,0.00
2022-10-02T04:23:01.945Z,0.00
2022-10-02T04:24:01.833Z,0.00
2022-10-02T04:25:02.346Z,0.00
2022-10-02T04:26:02.305Z,0.00
2022-10-02T04:27:03.085Z,0.00
2022-10-02T04:28:02.753Z,0.00
2022-10-02T04:29:02.634Z,0.00
2022-10-02T04:30:02.838Z,0.00
2022-10-02T04:31:02.784Z,0.00
2022-10-02T04:32:02.202Z,0.00
2022-10-02T04:33:02.269Z,0.00
2022-10-02T04:34:02.211Z,0.00
2022-10-02T04:35:02.058Z,0.00
2022-10-02T04:36:02.480Z,0.00
2022-10-02T04:37:01.672Z,0.00
2022-10-02T04:38:02.205Z,0.00
2022-10-02T04:39:01.578Z,0.00
2022-10-02T04:40:01.938Z,0.00
2022-10-02T04:41:01.645Z,0.00
2022-10-02T04:42:02.194Z,0.00
2022-10-02T04:43:02.056Z,0.00
2022-10-02T04:44:02.355Z,0.00
2022-10-02T04:45:02.261Z,0.00
2022-10-02T04:46:01.964Z,0.00
2022-10-02T04:47:02.392Z,0.00
2022-10-02T04:48:02.515Z,0.00
2022-10-02T04:49:02.353Z,0.00
2022-10-02T04:50:02.204Z,0.00
2022-10-02T04:51:02.242Z,0.00
2022-10-02T04:52:02.764Z,0.00
2022-10-02T04:53:02.277Z,0.00
2022-10-02T04:54:02.773Z,0.00
2022-10-02T04:55:02.694Z,0.00
2022-10-02T04:56:02.477Z,0.00
2022-10-02T04:57:02.510Z,0.00
2022-10-02T04:58:02.892Z,0.00
2022-10-02T04:59:03.072Z,0.00
2022-10-02T05:00:02.936Z,0.00
2022-10-02T05:01:03.074Z,0.00
2022-10-02T05:02:03.148Z,0.00
2022-10-02T05:03:03.384Z,0.00
2022-10-02T05:04:04.239Z,0.00
2022-10-02T05:05:03.672Z,0.00
2022-10-02T05:06:03.548Z,0.00
2022-10-02T05:07:02.358Z,0.00
2022-10-02T05:08:02.381Z,0.00
2022-10-02T05:09:02.471Z,0.00
2022-10-02T05:10:02.359Z,0.00
2022-10-02T05:11:02.523Z,4.00
2022-10-02T05:12:03.060Z,4.00
2022-10-02T05:13:02.744Z,4.00
2022-10-02T05:14:03.324Z,4.00
2022-10-02T05:15:03.010Z,4.00
2022-10-02T05:16:03.162Z,8.00
2022-10-02T05:17:02.680Z,8.00
2022-10-02T05:18:02.617Z,12.00
2022-10-02T05:19:02.625Z,8.00
2022-10-02T05:20:02.413Z,8.00
2022-10-02T05:21:02.692Z,16.00
2022-10-02T05:22:02.988Z,16.00
2022-10-02T05:23:03.080Z,20.00
2022-10-02T05:24:02.610Z,24.00
2022-10-02T05:25:02.502Z,28.00
2022-10-02T05:26:02.716Z,36.00
2022-10-02T05:27:03.513Z,44.00
2022-10-02T05:28:03.262Z,52.00
2022-10-02T05:29:03.291Z,56.00
2022-10-02T05:30:03.056Z,64.00
2022-10-02T05:31:03.061Z,72.00
2022-10-02T05:32:03.594Z,80.00
2022-10-02T05:33:03.372Z,92.00
2022-10-02T05:34:03.368Z,104.00
2022-10-02T05:35:03.034Z,112.00
2022-10-02T05:36:03.427Z,128.00
2022-10-02T05:37:02.921Z,136.00
2022-10-02T05:38:02.880Z,148.00
2022-10-02T05:39:02.372Z,152.00
2022-10-02T05:40:02.953Z,156.00
2022-10-02T05:41:02.845Z,160.00
2022-10-02T05:42:03.064Z,164.00
2022-10-02T05:43:02.755Z,168.00
2022-10-02T05:44:02.860Z,176.00
2022-10-02T05:45:02.813Z,188.00
2022-10-02T05:46:02.787Z,196.00
2022-10-02T05:47:03.234Z,204.00
2022-10-02T05:48:03.186Z,204.00
2022-10-02T05:49:03.061Z,220.00
2022-10-02T05:50:03.345Z,236.00
2022-10-02T05:51:03.241Z,256.00
2022-10-02T05:52:03.621Z,288.00
2022-10-02T05:53:03.385Z,320.00
2022-10-02T05:54:03.233Z,352.00
2022-10-02T05:55:03.326Z,380.00
2022-10-02T05:56:03.331Z,388.00
2022-10-02T05:57:03.286Z,384.00
2022-10-02T05:58:03.864Z,348.00
2022-10-02T05:59:03.696Z,300.00
2022-10-02T06:00:03.320Z,348.00
2022-10-02T06:01:03.455Z,436.00
2022-10-02T06:02:03.107Z,504.00
2022-10-02T06:03:03.177Z,540.00
2022-10-02T06:04:03.131Z,584.00
2022-10-02T06:05:03.480Z,632.00
2022-10-02T06:06:03.198Z,684.00
2022-10-02T06:07:03.355Z,724.00
2022-10-02T06:08:03.197Z,728.00
2022-10-02T06:09:03.625Z,696.00
2022-10-02T06:10:03.363Z,768.00
2022-10-02T06:11:03.433Z,832.00
2022-10-02T06:12:02.651Z,836.00
2022-10-02T06:13:02.997Z,856.00
2022-10-02T06:14:02.503Z,820.00
2022-10-02T06:15:02.458Z,812.00
2022-10-02T06:16:03.095Z,848.00
2022-10-02T06:17:03.127Z,920.00
2022-10-02T06:18:03.142Z,932.00
2022-10-02T06:19:03.314Z,944.00
2022-10-02T06:20:04.111Z,880.00
2022-10-02T06:21:03.290Z,940.00
2022-10-02T06:22:03.611Z,904.00
2022-10-02T06:23:03.309Z,952.00
2022-10-02T06:24:03.381Z,1056.00
2022-10-02T06:25:03.582Z,1160.00
2022-10-02T06:26:03.616Z,1308.00
2022-10-02T06:27:02.911Z,1172.00
2022-10-02T06:28:03.196Z,1008.00
2022-10-02T06:29:03.057Z,968.00
2022-10-02T06:30:03.046Z,912.00
2022-10-02T06:31:03.021Z,1016.00
2022-10-02T06:32:03.010Z,1008.00
2022-10-02T06:33:02.920Z,756.00
2022-10-02T06:34:03.298Z,688.00
2022-10-02T06:35:03.271Z,848.00
2022-10-02T06:36:03.313Z,972.00
2022-10-02T06:37:03.199Z,1012.00
2022-10-02T06:38:03.149Z,1136.00
2022-10-02T06:39:03.189Z,976.00
2022-10-02T06:40:03.034Z,944.00
2022-10-02T06:41:03.127Z,1144.00
2022-10-02T06:42:03.197Z,1528.00
2022-10-02T06:43:03.155Z,1536.00
2022-10-02T06:44:03.074Z,1408.00
2022-10-02T06:45:03.186Z,1316.00
2022-10-02T06:46:03.459Z,1176.00
2022-10-02T06:47:03.349Z,1040.00
2022-10-02T06:48:03.445Z,1024.00
2022-10-02T06:49:03.274Z,1220.00
2022-10-02T06:50:03.316Z,1308.00
2022-10-02T06:51:03.793Z,1164.00
2022-10-02T06:52:02.578Z,1052.00
2022-10-02T06:53:02.751Z,1420.00
2022-10-02T06:54:02.806Z,2008.00
2022-10-02T06:55:02.807Z,2088.00
2022-10-02T06:56:03.116Z,2160.00
2022-10-02T06:57:03.371Z,2320.00
2022-10-02T06:58:03.324Z,2712.00
2022-10-02T06:59:03.057Z,3124.00
2022-10-02T07:00:03.015Z,3416.00
2022-10-02T07:01:03.402Z,3256.00
2022-10-02T07:02:02.582Z,3064.00
2022-10-02T07:03:02.117Z,2964.00
2022-10-02T07:04:02.197Z,2868.00
2022-10-02T07:05:02.193Z,2740.00
2022-10-02T07:06:02.170Z,2456.00
2022-10-02T07:07:03.005Z,2340.00
2022-10-02T07:08:02.730Z,2348.00
2022-10-02T07:09:02.723Z,2356.00
2022-10-02T07:10:02.855Z,2460.00
2022-10-02T07:11:02.831Z,2636.00
2022-10-02T07:12:02.565Z,2728.00
2022-10-02T07:13:02.741Z,2812.00
2022-10-02T07:14:02.537Z,2912.00
2022-10-02T07:15:02.220Z,2968.00
2022-10-02T07:16:02.230Z,2832.00
2022-10-02T07:17:02.887Z,2640.00
2022-10-02T07:18:02.764Z,2716.00
2022-10-02T07:19:02.726Z,2752.00
2022-10-02T07:20:03.052Z,2760.00
2022-10-02T07:21:02.823Z,2896.00
2022-10-02T07:22:11.157Z,3064.00
2022-10-02T07:23:02.451Z,3372.00
2022-10-02T07:24:02.882Z,3796.00
2022-10-02T07:25:02.471Z,3956.00
2022-10-02T07:26:02.476Z,3772.00
2022-10-02T07:27:02.467Z,3556.00
2022-10-02T07:28:02.898Z,3792.00
2022-10-02T07:29:02.474Z,3816.00
2022-10-02T07:30:02.410Z,4056.00
2022-10-02T07:31:02.370Z,4000.00
2022-10-02T07:32:02.375Z,3696.00
2022-10-02T07:33:02.539Z,3440.00
2022-10-02T07:34:02.444Z,3364.00
2022-10-02T07:35:02.363Z,3364.00
2022-10-02T07:36:02.348Z,3380.00
2022-10-02T07:37:02.811Z,3384.00
2022-10-02T07:38:02.722Z,3628.00
2022-10-02T07:39:02.419Z,3780.00
2022-10-02T07:40:02.417Z,4000.00
2022-10-02T07:41:02.410Z,4652.00
2022-10-02T07:42:03.118Z,5204.00
2022-10-02T07:43:02.762Z,5048.00
2022-10-02T07:44:02.952Z,5128.00
2022-10-02T07:45:02.777Z,5604.00
2022-10-02T07:46:02.936Z,6200.00
2022-10-02T07:47:02.720Z,6564.00
2022-10-02T07:48:02.421Z,6620.00
2022-10-02T07:49:02.429Z,6428.00
2022-10-02T07:50:02.376Z,6216.00
2022-10-02T07:51:02.571Z,6316.00
2022-10-02T07:52:03.255Z,6384.00
2022-10-02T07:53:03.266Z,6368.00
2022-10-02T07:54:03.279Z,6336.00
2022-10-02T07:55:02.789Z,6252.00
2022-10-02T07:56:02.797Z,6236.00
2022-10-02T07:57:06.332Z,6280.00
2022-10-02T07:58:02.779Z,6432.00
2022-10-02T07:59:02.621Z,6612.00
2022-10-02T08:00:02.898Z,6484.00
2022-10-02T08:01:03.033Z,6216.00
2022-10-02T08:02:02.564Z,5808.00
2022-10-02T08:03:02.592Z,5640.00
2022-10-02T08:04:02.293Z,5444.00
2022-10-02T08:05:01.902Z,5452.00
2022-10-02T08:06:02.479Z,5448.00
2022-10-02T08:07:02.675Z,5268.00
2022-10-02T08:08:02.647Z,5132.00
2022-10-02T08:09:02.569Z,4944.00
2022-10-02T08:10:02.800Z,4824.00
2022-10-02T08:11:02.758Z,4868.00
2022-10-02T08:12:02.431Z,5016.00
2022-10-02T08:13:02.183Z,5104.00
2022-10-02T08:14:02.339Z,5228.00
2022-10-02T08:15:02.008Z,5428.00
2022-10-02T08:16:02.269Z,5712.00
2022-10-02T08:17:03.045Z,5960.00
2022-10-02T08:18:22.770Z,6116.00
2022-10-02T08:19:02.999Z,6208.00
2022-10-02T08:20:02.813Z,6376.00
2022-10-02T08:21:02.767Z,6516.00
2022-10-02T08:22:02.006Z,6732.00
2022-10-02T08:23:01.805Z,6968.00
2022-10-02T08:24:02.116Z,7148.00
2022-10-02T08:25:02.510Z,7464.00
2022-10-02T08:26:02.346Z,7652.00
2022-10-02T08:27:02.214Z,7836.00
2022-10-02T08:28:02.779Z,7988.00
2022-10-02T08:29:02.527Z,8124.00
2022-10-02T08:30:02.532Z,8236.00
2022-10-02T08:31:02.459Z,8144.00
2022-10-02T08:32:02.243Z,7864.00
2022-10-02T08:33:02.197Z,7428.00
2022-10-02T08:34:02.340Z,7000.00
2022-10-02T08:35:02.581Z,6560.00
2022-10-02T08:36:02.563Z,6240.00
2022-10-02T08:37:02.372Z,5872.00
2022-10-02T08:38:02.882Z,5612.00
2022-10-02T08:39:02.504Z,5456.00
2022-10-02T08:40:02.458Z,5132.00
2022-10-02T08:41:02.394Z,4916.00
2022-10-02T08:42:02.075Z,4788.00
2022-10-02T08:43:02.416Z,4816.00
2022-10-02T08:44:02.433Z,4860.00
2022-10-02T08:45:02.465Z,4852.00
2022-10-02T08:46:02.358Z,5052.00
2022-10-02T08:47:02.426Z,5264.00
2022-10-02T08:48:02.499Z,5696.00
2022-10-02T08:49:02.868Z,5952.00
2022-10-02T08:50:02.806Z,6172.00
2022-10-02T08:51:02.854Z,6240.00
2022-10-02T08:52:02.810Z,6264.00
2022-10-02T08:53:02.790Z,6348.00
2022-10-02T08:54:02.827Z,6460.00
2022-10-02T08:55:03.133Z,6596.00
2022-10-02T08:56:03.154Z,6592.00
2022-10-02T08:57:02.189Z,6576.00
2022-10-02T08:58:02.366Z,6488.00
2022-10-02T08:59:02.372Z,6572.00
2022-10-02T09:00:02.424Z,6976.00
2022-10-02T09:01:02.650Z,7672.00
2022-10-02T09:02:02.601Z,8452.00
2022-10-02T09:03:02.355Z,8992.00
2022-10-02T09:04:02.392Z,9332.00
2022-10-02T09:05:02.905Z,9500.00
2022-10-02T09:06:02.644Z,9508.00
2022-10-02T09:07:02.647Z,9588.00
2022-10-02T09:08:02.671Z,9816.00
2022-10-02T09:09:02.859Z,10104.00
2022-10-02T09:10:02.860Z,10432.00
2022-10-02T09:11:02.887Z,10760.00
2022-10-02T09:12:03.300Z,10856.00
2022-10-02T09:13:03.270Z,10792.00
2022-10-02T09:14:03.120Z,10816.00
2022-10-02T09:15:03.341Z,10856.00
2022-10-02T09:16:03.396Z,10832.00
2022-10-02T09:17:03.378Z,10784.00
2022-10-02T09:18:03.459Z,10916.00
2022-10-02T09:19:03.761Z,10884.00
2022-10-02T09:20:03.741Z,10012.00
2022-10-02T09:21:06.948Z,9604.00
2022-10-02T09:22:02.493Z,9440.00
2022-10-02T09:23:02.818Z,9720.00
2022-10-02T09:24:02.638Z,7852.00
2022-10-02T09:25:02.552Z,7000.00
2022-10-02T09:26:02.679Z,6344.00
2022-10-02T09:27:03.353Z,6188.00
2022-10-02T09:28:03.479Z,6292.00
2022-10-02T09:29:03.728Z,7100.00
2022-10-02T09:30:03.181Z,8708.00
2022-10-02T09:31:03.565Z,9980.00
2022-10-02T09:32:02.711Z,11032.00
2022-10-02T09:33:02.930Z,11616.00
2022-10-02T09:34:02.429Z,12084.00
2022-10-02T09:35:02.491Z,12972.00
2022-10-02T09:36:02.492Z,13936.00
2022-10-02T09:37:02.783Z,13184.00
2022-10-02T09:38:02.802Z,14052.00
2022-10-02T09:39:02.886Z,14344.00
2022-10-02T09:40:02.924Z,12604.00
2022-10-02T09:41:03.161Z,10632.00
2022-10-02T09:42:02.877Z,9160.00
2022-10-02T09:43:02.875Z,8672.00
2022-10-02T09:44:03.186Z,8936.00
2022-10-02T09:45:03.014Z,8620.00
2022-10-02T09:46:03.063Z,9236.00
2022-10-02T09:47:02.969Z,9784.00
2022-10-02T09:48:02.986Z,10076.00
2022-10-02T09:49:03.004Z,9224.00
2022-10-02T09:50:02.999Z,8164.00
2022-10-02T09:51:02.941Z,7108.00
2022-10-02T09:52:03.324Z,6624.00
2022-10-02T09:53:03.262Z,6848.00
2022-10-02T09:54:03.232Z,7788.00
2022-10-02T09:55:03.241Z,9664.00
2022-10-02T09:56:03.681Z,10344.00
2022-10-02T09:57:03.512Z,10808.00
2022-10-02T09:58:03.501Z,10920.00
2022-10-02T09:59:03.505Z,12400.00
2022-10-02T10:00:03.727Z,14368.00
2022-10-02T10:01:03.675Z,16160.00
2022-10-02T10:02:02.075Z,15104.00
2022-10-02T10:03:01.903Z,12268.00
2022-10-02T10:04:01.960Z,10160.00
2022-10-02T10:05:06.096Z,8608.00
2022-10-02T10:06:01.727Z,6688.00
2022-10-02T10:07:02.456Z,6096.00
2022-10-02T10:08:02.510Z,5600.00
2022-10-02T10:09:02.497Z,5508.00
2022-10-02T10:10:02.523Z,5140.00
2022-10-02T10:11:02.382Z,4572.00
2022-10-02T10:12:02.015Z,4096.00
2022-10-02T10:13:01.657Z,4348.00
2022-10-02T10:14:01.637Z,4600.00
2022-10-02T10:15:01.663Z,5096.00
2022-10-02T10:16:01.652Z,5516.00
2022-10-02T10:17:02.364Z,6960.00
2022-10-02T10:18:02.314Z,8368.00
2022-10-02T10:19:02.530Z,9764.00
2022-10-02T10:20:02.208Z,11388.00
2022-10-02T10:21:02.558Z,12692.00
2022-10-02T10:22:02.057Z,13808.00
2022-10-02T10:23:01.943Z,15200.00
2022-10-02T10:24:02.034Z,14244.00
2022-10-02T10:25:02.084Z,13976.00
2022-10-02T10:26:02.112Z,14432.00
2022-10-02T10:27:05.254Z,10792.00
2022-10-02T10:28:02.085Z,11444.00
2022-10-02T10:29:02.064Z,12148.00
2022-10-02T10:30:02.208Z,11716.00
2022-10-02T10:31:02.210Z,11832.00
2022-10-02T10:32:02.178Z,12016.00
2022-10-02T10:33:01.968Z,12412.00
2022-10-02T10:34:01.992Z,12040.00
2022-10-02T10:35:01.571Z,11508.00
2022-10-02T10:36:02.071Z,12000.00
2022-10-02T10:37:02.823Z,11712.00
2022-10-02T10:38:02.903Z,11456.00
2022-10-02T10:39:02.387Z,10948.00
2022-10-02T10:40:02.475Z,9528.00
2022-10-02T10:41:02.360Z,7880.00
2022-10-02T10:42:03.057Z,7676.00
2022-10-02T10:43:07.772Z,8552.00
2022-10-02T10:44:02.902Z,8128.00
2022-10-02T10:45:02.929Z,8148.00
2022-10-02T10:46:03.118Z,7960.00
2022-10-02T10:47:02.338Z,7232.00
2022-10-02T10:48:02.011Z,6112.00
2022-10-02T10:49:01.889Z,6008.00
2022-10-02T10:50:02.282Z,5372.00
2022-10-02T10:51:02.348Z,4656.00
2022-10-02T10:52:02.915Z,3572.00
2022-10-02T10:53:02.752Z,2652.00
2022-10-02T10:54:02.381Z,2124.00
2022-10-02T10:55:02.573Z,1784.00
2022-10-02T10:56:02.885Z,1932.00
2022-10-02T10:57:01.664Z,2824.00
2022-10-02T10:58:02.345Z,3968.00
2022-10-02T10:59:02.119Z,4540.00
2022-10-02T11:00:02.009Z,4772.00
2022-10-02T11:01:02.237Z,5400.00
2022-10-02T11:02:02.066Z,6484.00
2022-10-02T11:03:02.141Z,7896.00
2022-10-02T11:04:02.516Z,7840.00
2022-10-02T11:05:02.134Z,7980.00
2022-10-02T11:06:02.041Z,8496.00
2022-10-02T11:07:02.138Z,8500.00
2022-10-02T11:08:02.340Z,6936.00
2022-10-02T11:09:02.451Z,6360.00
2022-10-02T11:10:02.191Z,5936.00
2022-10-02T11:11:02.668Z,4844.00
2022-10-02T11:12:05.251Z,3824.00
2022-10-02T11:13:02.999Z,3016.00
2022-10-02T11:14:02.798Z,2336.00
2022-10-02T11:15:02.731Z,1692.00
2022-10-02T11:16:02.681Z,1792.00
2022-10-02T11:17:02.895Z,2404.00
2022-10-02T11:18:02.430Z,3056.00
2022-10-02T11:19:02.154Z,4056.00
2022-10-02T11:20:02.272Z,5824.00
2022-10-02T11:21:02.191Z,7264.00
2022-10-02T11:22:02.051Z,8008.00
2022-10-02T11:23:02.415Z,7396.00
2022-10-02T11:24:02.352Z,7184.00
2022-10-02T11:25:02.549Z,7192.00
2022-10-02T11:26:02.556Z,7524.00
2022-10-02T11:27:02.487Z,8404.00
2022-10-02T11:28:03.264Z,8508.00
2022-10-02T11:29:03.299Z,7912.00
2022-10-02T11:30:03.051Z,7764.00
2022-10-02T11:31:02.986Z,7836.00
2022-10-02T11:32:03.044Z,8076.00
2022-10-02T11:33:02.371Z,8892.00
2022-10-02T11:34:02.827Z,9120.00
2022-10-02T11:35:02.702Z,8328.00
2022-10-02T11:36:02.495Z,8576.00
2022-10-02T11:37:02.532Z,10148.00
2022-10-02T11:38:04.120Z,10396.00
2022-10-02T11:39:02.777Z,7352.00
2022-10-02T11:40:02.875Z,7128.00
2022-10-02T11:41:02.486Z,8288.00
2022-10-02T11:42:02.647Z,9260.00
2022-10-02T11:43:02.986Z,9168.00
2022-10-02T11:44:02.329Z,10184.00
2022-10-02T11:45:02.421Z,10660.00
2022-10-02T11:46:02.708Z,10536.00
2022-10-02T11:47:02.770Z,9176.00
2022-10-02T11:48:02.447Z,7592.00
2022-10-02T11:49:02.509Z,6552.00
2022-10-02T11:50:02.634Z,7300.00
2022-10-02T11:51:02.715Z,8124.00
2022-10-02T11:52:02.472Z,8072.00
2022-10-02T11:53:03.092Z,7824.00
2022-10-02T11:54:03.392Z,7272.00
2022-10-02T11:55:03.517Z,5592.00
2022-10-02T11:56:03.026Z,5208.00
2022-10-02T11:57:03.180Z,5884.00
2022-10-02T11:58:02.959Z,7492.00
2022-10-02T11:59:02.879Z,8132.00
2022-10-02T12:00:03.040Z,8204.00
2022-10-02T12:01:02.873Z,7672.00
2022-10-02T12:02:03.103Z,7764.00
2022-10-02T12:03:02.872Z,7344.00
2022-10-02T12:04:03.156Z,7308.00
2022-10-02T12:05:02.998Z,8188.00
2022-10-02T12:06:03.161Z,8684.00
2022-10-02T12:07:02.827Z,9344.00
2022-10-02T12:08:02.186Z,10120.00
2022-10-02T12:09:02.773Z,9656.00
2022-10-02T12:10:02.735Z,10276.00
2022-10-02T12:11:02.398Z,10028.00
2022-10-02T12:12:02.793Z,8704.00
2022-10-02T12:13:02.087Z,7860.00
2022-10-02T12:14:02.056Z,7400.00
2022-10-02T12:15:02.057Z,6896.00
2022-10-02T12:16:02.164Z,6668.00
2022-10-02T12:17:02.387Z,7636.00
2022-10-02T12:18:02.500Z,8904.00
2022-10-02T12:19:02.877Z,9568.00
2022-10-02T12:20:02.985Z,9920.00
2022-10-02T12:21:02.664Z,10716.00
2022-10-02T12:22:02.399Z,10604.00
2022-10-02T12:23:02.742Z,10284.00
2022-10-02T12:24:03.117Z,11352.00
2022-10-02T12:25:02.946Z,10548.00
2022-10-02T12:26:03.196Z,10248.00
2022-10-02T12:27:02.665Z,10752.00
2022-10-02T12:28:02.543Z,10340.00
2022-10-02T12:29:02.485Z,11016.00
2022-10-02T12:30:02.228Z,10816.00
2022-10-02T12:31:02.149Z,10728.00
2022-10-02T12:32:02.210Z,10216.00
2022-10-02T12:33:02.645Z,10556.00
2022-10-02T12:34:02.502Z,10308.00
2022-10-02T12:35:02.328Z,9372.00
2022-10-02T12:36:02.088Z,8800.00